sensor_id;sensor_type;location;lat;lon;timestamp;temperature;humidity
9987;DHT22;5033;46.310;11.214;2022-12-07T00:01:36;2.20;99.90
9987;DHT22;5033;46.310;11.214;2022-12-07T00:04:08;2.20;99.90
9987;DHT22;5033;46.310;11.214;2022-12-07T00:06:39;2.20;99.90
9987;DHT22;5033;46.310;11.214;2022-12-07T00:09:10;2.20;99.90
9987;DHT22;5033;46.310;11.214;2022-12-07T00:11:38;2.20;99.90
9987;DHT22;5033;46.310;11.214;2022-12-07T00:14:09;2.20;99.90
9987;DHT22;5033;46.310;11.214;2022-12-07T00:16:39;2.10;99.90
9987;DHT22;5033;46.310;11.214;2022-12-07T00:19:06;2.10;99.90
9987;DHT22;5033;46.310;11.214;2022-12-07T00:21:34;2.10;99.90
9987;DHT22;5033;46.310;11.214;2022-12-07T00:24:03;2.10;99.90
9987;DHT22;5033;46.310;11.214;2022-12-07T00:26:32;2.10;99.90
9987;DHT22;5033;46.310;11.214;2022-12-07T00:29:02;2.00;99.90
9987;DHT22;5033;46.310;11.214;2022-12-07T00:31:31;2.00;99.90
9987;DHT22;5033;46.310;11.214;2022-12-07T00:34:02;2.00;99.90
9987;DHT22;5033;46.310;11.214;2022-12-07T00:36:30;2.00;99.90
9987;DHT22;5033;46.310;11.214;2022-12-07T00:38:58;2.00;99.90
9987;DHT22;5033;46.310;11.214;2022-12-07T00:41:29;1.90;99.90
9987;DHT22;5033;46.310;11.214;2022-12-07T00:43:56;2.00;99.90
9987;DHT22;5033;46.310;11.214;2022-12-07T00:46:24;2.00;99.90
9987;DHT22;5033;46.310;11.214;2022-12-07T00:48:52;2.00;99.90
9987;DHT22;5033;46.310;11.214;2022-12-07T00:51:24;2.00;99.90
9987;DHT22;5033;46.310;11.214;2022-12-07T00:53:52;1.90;99.90
9987;DHT22;5033;46.310;11.214;2022-12-07T00:56:20;2.00;99.90
9987;DHT22;5033;46.310;11.214;2022-12-07T00:58:52;1.90;99.90
9987;DHT22;5033;46.310;11.214;2022-12-07T01:01:20;2.00;99.90
9987;DHT22;5033;46.310;11.214;2022-12-07T01:03:48;2.00;99.90
9987;DHT22;5033;46.310;11.214;2022-12-07T01:06:16;2.00;99.90
9987;DHT22;5033;46.310;11.214;2022-12-07T01:08:45;2.00;99.90
9987;DHT22;5033;46.310;11.214;2022-12-07T01:11:14;2.00;99.90
9987;DHT22;5033;46.310;11.214;2022-12-07T01:13:43;1.90;99.90
9987;DHT22;5033;46.310;11.214;2022-12-07T01:16:13;1.90;99.90
9987;DHT22;5033;46.310;11.214;2022-12-07T01:18:41;1.90;99.90
9987;DHT22;5033;46.310;11.214;2022-12-07T01:21:11;1.90;99.90
9987;DHT22;5033;46.310;11.214;2022-12-07T01:23:38;1.90;99.90
9987;DHT22;5033;46.310;11.214;2022-12-07T01:26:09;1.90;99.90
9987;DHT22;5033;46.310;11.214;2022-12-07T01:28:38;1.90;99.90
9987;DHT22;5033;46.310;11.214;2022-12-07T01:31:07;1.80;99.90
9987;DHT22;5033;46.310;11.214;2022-12-07T01:33:36;1.80;99.90
9987;DHT22;5033;46.310;11.214;2022-12-07T01:36:06;1.90;99.90
9987;DHT22;5033;46.310;11.214;2022-12-07T01:38:34;1.80;99.90
9987;DHT22;5033;46.310;11.214;2022-12-07T01:41:02;1.80;99.90
9987;DHT22;5033;46.310;11.214;2022-12-07T01:43:33;1.80;99.90
9987;DHT22;5033;46.310;11.214;2022-12-07T01:46:01;1.80;99.90
9987;DHT22;5033;46.310;11.214;2022-12-07T01:48:32;1.80;99.90
9987;DHT22;5033;46.310;11.214;2022-12-07T01:51:03;1.80;99.90
9987;DHT22;5033;46.310;11.214;2022-12-07T01:53:32;1.80;99.90
9987;DHT22;5033;46.310;11.214;2022-12-07T01:56:01;1.80;99.90
9987;DHT22;5033;46.310;11.214;2022-12-07T01:58:28;1.80;99.90
9987;DHT22;5033;46.310;11.214;2022-12-07T02:00:59;1.80;99.90
9987;DHT22;5033;46.310;11.214;2022-12-07T02:03:30;1.70;99.90
9987;DHT22;5033;46.310;11.214;2022-12-07T02:05:59;1.70;99.90
9987;DHT22;5033;46.310;11.214;2022-12-07T02:08:27;1.70;99.90
9987;DHT22;5033;46.310;11.214;2022-12-07T02:10:54;1.70;99.90
9987;DHT22;5033;46.310;11.214;2022-12-07T02:13:25;1.70;99.90
9987;DHT22;5033;46.310;11.214;2022-12-07T02:19:23;1.60;99.90
9987;DHT22;5033;46.310;11.214;2022-12-07T02:21:59;1.60;99.90
9987;DHT22;5033;46.310;11.214;2022-12-07T02:24:45;1.60;99.90
9987;DHT22;5033;46.310;11.214;2022-12-07T02:27:38;1.60;99.90
9987;DHT22;5033;46.310;11.214;2022-12-07T02:30:10;1.60;99.90
9987;DHT22;5033;46.310;11.214;2022-12-07T02:32:44;1.60;99.90
9987;DHT22;5033;46.310;11.214;2022-12-07T02:35:19;1.60;99.90
9987;DHT22;5033;46.310;11.214;2022-12-07T02:37:53;1.50;99.90
9987;DHT22;5033;46.310;11.214;2022-12-07T02:40:29;1.50;99.90
9987;DHT22;5033;46.310;11.214;2022-12-07T02:43:03;1.50;99.90
9987;DHT22;5033;46.310;11.214;2022-12-07T02:45:35;1.50;99.90
9987;DHT22;5033;46.310;11.214;2022-12-07T02:48:06;1.50;99.90
9987;DHT22;5033;46.310;11.214;2022-12-07T02:50:34;1.50;99.90
9987;DHT22;5033;46.310;11.214;2022-12-07T02:53:01;1.50;99.90
9987;DHT22;5033;46.310;11.214;2022-12-07T02:55:33;1.50;99.90
9987;DHT22;5033;46.310;11.214;2022-12-07T02:58:23;1.50;99.90
9987;DHT22;5033;46.310;11.214;2022-12-07T03:01:04;1.50;99.90
9987;DHT22;5033;46.310;11.214;2022-12-07T03:03:35;1.50;99.90
9987;DHT22;5033;46.310;11.214;2022-12-07T03:06:10;1.50;99.90
9987;DHT22;5033;46.310;11.214;2022-12-07T03:08:51;1.40;99.90
9987;DHT22;5033;46.310;11.214;2022-12-07T03:11:23;1.40;99.90
9987;DHT22;5033;46.310;11.214;2022-12-07T03:13:59;1.30;99.90
9987;DHT22;5033;46.310;11.214;2022-12-07T03:16:33;1.30;99.90
9987;DHT22;5033;46.310;11.214;2022-12-07T03:19:07;1.30;99.90
9987;DHT22;5033;46.310;11.214;2022-12-07T03:21:38;1.30;99.90
9987;DHT22;5033;46.310;11.214;2022-12-07T03:24:10;1.30;99.90
9987;DHT22;5033;46.310;11.214;2022-12-07T03:26:41;1.30;99.90
9987;DHT22;5033;46.310;11.214;2022-12-07T03:29:13;1.30;99.90
9987;DHT22;5033;46.310;11.214;2022-12-07T03:31:47;1.30;99.90
9987;DHT22;5033;46.310;11.214;2022-12-07T03:34:18;1.30;99.90
9987;DHT22;5033;46.310;11.214;2022-12-07T03:36:49;1.30;99.90
9987;DHT22;5033;46.310;11.214;2022-12-07T03:39:22;1.30;99.90
9987;DHT22;5033;46.310;11.214;2022-12-07T03:41:51;1.30;99.90
9987;DHT22;5033;46.310;11.214;2022-12-07T03:44:19;1.30;99.90
9987;DHT22;5033;46.310;11.214;2022-12-07T03:46:55;1.30;99.90
9987;DHT22;5033;46.310;11.214;2022-12-07T03:49:27;1.30;99.90
9987;DHT22;5033;46.310;11.214;2022-12-07T03:52:03;1.30;99.90
9987;DHT22;5033;46.310;11.214;2022-12-07T03:54:41;1.40;99.90
9987;DHT22;5033;46.310;11.214;2022-12-07T03:57:10;1.40;99.90
9987;DHT22;5033;46.310;11.214;2022-12-07T03:59:39;1.40;99.90
9987;DHT22;5033;46.310;11.214;2022-12-07T04:02:11;1.30;99.90
9987;DHT22;5033;46.310;11.214;2022-12-07T04:04:40;1.30;99.90
9987;DHT22;5033;46.310;11.214;2022-12-07T04:07:08;1.30;99.90
9987;DHT22;5033;46.310;11.214;2022-12-07T04:09:36;1.30;99.90
9987;DHT22;5033;46.310;11.214;2022-12-07T04:12:04;1.20;99.90
9987;DHT22;5033;46.310;11.214;2022-12-07T04:14:31;1.20;99.90
9987;DHT22;5033;46.310;11.214;2022-12-07T04:16:59;1.20;99.90
9987;DHT22;5033;46.310;11.214;2022-12-07T04:19:30;1.20;99.90
9987;DHT22;5033;46.310;11.214;2022-12-07T04:21:59;1.20;99.90
9987;DHT22;5033;46.310;11.214;2022-12-07T04:24:27;1.20;99.90
9987;DHT22;5033;46.310;11.214;2022-12-07T04:26:55;1.20;99.90
9987;DHT22;5033;46.310;11.214;2022-12-07T04:29:23;1.10;99.90
9987;DHT22;5033;46.310;11.214;2022-12-07T04:31:50;1.10;99.90
9987;DHT22;5033;46.310;11.214;2022-12-07T04:34:19;1.10;99.90
9987;DHT22;5033;46.310;11.214;2022-12-07T04:36:49;1.10;99.90
9987;DHT22;5033;46.310;11.214;2022-12-07T04:39:19;1.10;99.90
9987;DHT22;5033;46.310;11.214;2022-12-07T04:41:48;1.10;99.90
9987;DHT22;5033;46.310;11.214;2022-12-07T04:44:17;1.10;99.90
9987;DHT22;5033;46.310;11.214;2022-12-07T04:46:45;1.10;99.90
9987;DHT22;5033;46.310;11.214;2022-12-07T04:49:13;1.10;99.90
9987;DHT22;5033;46.310;11.214;2022-12-07T04:51:41;1.10;99.90
9987;DHT22;5033;46.310;11.214;2022-12-07T04:54:09;1.20;99.90
9987;DHT22;5033;46.310;11.214;2022-12-07T04:56:37;1.20;99.90
9987;DHT22;5033;46.310;11.214;2022-12-07T04:59:05;1.20;99.90
9987;DHT22;5033;46.310;11.214;2022-12-07T05:01:33;1.10;99.90
9987;DHT22;5033;46.310;11.214;2022-12-07T05:04:01;1.10;99.90
9987;DHT22;5033;46.310;11.214;2022-12-07T05:06:28;1.10;99.90
9987;DHT22;5033;46.310;11.214;2022-12-07T05:08:55;1.10;99.90
9987;DHT22;5033;46.310;11.214;2022-12-07T05:11:24;1.10;99.90
9987;DHT22;5033;46.310;11.214;2022-12-07T05:14:09;1.10;99.90
9987;DHT22;5033;46.310;11.214;2022-12-07T05:16:37;1.00;99.90
9987;DHT22;5033;46.310;11.214;2022-12-07T05:19:05;1.00;99.90
9987;DHT22;5033;46.310;11.214;2022-12-07T05:21:32;1.00;99.90
9987;DHT22;5033;46.310;11.214;2022-12-07T05:23:59;1.00;99.90
9987;DHT22;5033;46.310;11.214;2022-12-07T05:26:28;1.00;99.90
9987;DHT22;5033;46.310;11.214;2022-12-07T05:28:57;1.00;99.90
9987;DHT22;5033;46.310;11.214;2022-12-07T05:31:25;1.00;99.90
9987;DHT22;5033;46.310;11.214;2022-12-07T05:33:53;1.10;99.90
9987;DHT22;5033;46.310;11.214;2022-12-07T05:36:21;1.10;99.90
9987;DHT22;5033;46.310;11.214;2022-12-07T05:38:48;1.00;99.90
9987;DHT22;5033;46.310;11.214;2022-12-07T05:41:18;1.00;99.90
9987;DHT22;5033;46.310;11.214;2022-12-07T05:44:04;1.00;99.90
9987;DHT22;5033;46.310;11.214;2022-12-07T05:46:32;1.00;99.90
9987;DHT22;5033;46.310;11.214;2022-12-07T05:49:00;1.00;99.90
9987;DHT22;5033;46.310;11.214;2022-12-07T05:51:27;1.00;99.90
9987;DHT22;5033;46.310;11.214;2022-12-07T05:53:55;1.00;99.90
9987;DHT22;5033;46.310;11.214;2022-12-07T05:56:22;1.00;99.90
9987;DHT22;5033;46.310;11.214;2022-12-07T05:58:50;1.00;99.90
9987;DHT22;5033;46.310;11.214;2022-12-07T06:01:36;1.00;99.90
9987;DHT22;5033;46.310;11.214;2022-12-07T06:04:03;1.00;99.90
9987;DHT22;5033;46.310;11.214;2022-12-07T06:06:30;1.00;99.90
9987;DHT22;5033;46.310;11.214;2022-12-07T06:08:57;1.00;99.90
9987;DHT22;5033;46.310;11.214;2022-12-07T06:11:25;0.90;99.90
9987;DHT22;5033;46.310;11.214;2022-12-07T06:14:09;0.90;99.90
9987;DHT22;5033;46.310;11.214;2022-12-07T06:16:39;0.90;99.90
9987;DHT22;5033;46.310;11.214;2022-12-07T06:19:06;0.90;99.90
9987;DHT22;5033;46.310;11.214;2022-12-07T06:21:34;0.90;99.90
9987;DHT22;5033;46.310;11.214;2022-12-07T06:24:01;0.90;99.90
9987;DHT22;5033;46.310;11.214;2022-12-07T06:26:28;0.90;99.90
9987;DHT22;5033;46.310;11.214;2022-12-07T06:28:56;0.90;99.90
9987;DHT22;5033;46.310;11.214;2022-12-07T06:31:23;0.90;99.90
9987;DHT22;5033;46.310;11.214;2022-12-07T06:33:57;0.90;99.90
9987;DHT22;5033;46.310;11.214;2022-12-07T06:36:24;0.90;99.90
9987;DHT22;5033;46.310;11.214;2022-12-07T06:38:52;0.90;99.90
9987;DHT22;5033;46.310;11.214;2022-12-07T06:41:19;1.00;99.90
9987;DHT22;5033;46.310;11.214;2022-12-07T06:43:47;1.00;99.90
9987;DHT22;5033;46.310;11.214;2022-12-07T06:46:15;1.00;99.90
9987;DHT22;5033;46.310;11.214;2022-12-07T06:48:43;1.00;99.90
9987;DHT22;5033;46.310;11.214;2022-12-07T06:51:12;1.00;99.90
9987;DHT22;5033;46.310;11.214;2022-12-07T06:53:39;1.00;99.90
9987;DHT22;5033;46.310;11.214;2022-12-07T06:56:07;1.00;99.90
9987;DHT22;5033;46.310;11.214;2022-12-07T06:58:34;1.00;99.90
9987;DHT22;5033;46.310;11.214;2022-12-07T07:01:01;1.10;99.90
9987;DHT22;5033;46.310;11.214;2022-12-07T07:03:29;1.10;99.90
9987;DHT22;5033;46.310;11.214;2022-12-07T07:05:56;1.20;99.90
9987;DHT22;5033;46.310;11.214;2022-12-07T07:08:25;1.20;99.90
9987;DHT22;5033;46.310;11.214;2022-12-07T07:10:52;1.20;99.90
9987;DHT22;5033;46.310;11.214;2022-12-07T07:13:19;1.30;99.90
9987;DHT22;5033;46.310;11.214;2022-12-07T07:15:48;1.30;99.90
9987;DHT22;5033;46.310;11.214;2022-12-07T07:18:15;1.30;99.90
9987;DHT22;5033;46.310;11.214;2022-12-07T07:20:43;1.30;99.90
9987;DHT22;5033;46.310;11.214;2022-12-07T07:23:10;1.40;99.90
9987;DHT22;5033;46.310;11.214;2022-12-07T07:25:39;1.30;99.90
9987;DHT22;5033;46.310;11.214;2022-12-07T07:28:07;1.40;99.90
9987;DHT22;5033;46.310;11.214;2022-12-07T07:30:34;1.40;99.90
9987;DHT22;5033;46.310;11.214;2022-12-07T07:33:02;1.40;99.90
9987;DHT22;5033;46.310;11.214;2022-12-07T07:35:31;1.50;99.90
9987;DHT22;5033;46.310;11.214;2022-12-07T07:38:00;1.50;99.90
9987;DHT22;5033;46.310;11.214;2022-12-07T07:40:28;1.50;99.90
9987;DHT22;5033;46.310;11.214;2022-12-07T07:42:58;1.60;99.90
9987;DHT22;5033;46.310;11.214;2022-12-07T07:45:26;1.60;99.90
9987;DHT22;5033;46.310;11.214;2022-12-07T07:47:54;1.60;99.90
9987;DHT22;5033;46.310;11.214;2022-12-07T07:50:22;1.60;99.90
9987;DHT22;5033;46.310;11.214;2022-12-07T07:52:50;1.70;99.90
9987;DHT22;5033;46.310;11.214;2022-12-07T07:55:18;1.70;99.90
9987;DHT22;5033;46.310;11.214;2022-12-07T07:57:45;1.70;99.90
9987;DHT22;5033;46.310;11.214;2022-12-07T08:00:16;1.70;99.90
9987;DHT22;5033;46.310;11.214;2022-12-07T08:02:44;1.70;99.90
9987;DHT22;5033;46.310;11.214;2022-12-07T08:05:12;1.80;99.90
9987;DHT22;5033;46.310;11.214;2022-12-07T08:07:40;1.80;99.90
9987;DHT22;5033;46.310;11.214;2022-12-07T08:10:10;1.90;99.90
9987;DHT22;5033;46.310;11.214;2022-12-07T08:12:39;2.30;99.90
9987;DHT22;5033;46.310;11.214;2022-12-07T08:15:29;2.90;99.90
9987;DHT22;5033;46.310;11.214;2022-12-07T08:17:57;3.10;99.90
9987;DHT22;5033;46.310;11.214;2022-12-07T08:20:24;3.30;99.90
9987;DHT22;5033;46.310;11.214;2022-12-07T08:22:51;3.90;99.90
9987;DHT22;5033;46.310;11.214;2022-12-07T08:25:18;4.30;99.90
9987;DHT22;5033;46.310;11.214;2022-12-07T08:27:45;5.10;99.90
9987;DHT22;5033;46.310;11.214;2022-12-07T08:30:13;5.90;99.90
9987;DHT22;5033;46.310;11.214;2022-12-07T08:32:41;6.60;99.90
9987;DHT22;5033;46.310;11.214;2022-12-07T08:35:09;7.20;99.90
9987;DHT22;5033;46.310;11.214;2022-12-07T08:37:36;7.50;99.90
9987;DHT22;5033;46.310;11.214;2022-12-07T08:40:04;7.70;99.90
9987;DHT22;5033;46.310;11.214;2022-12-07T08:42:32;8.00;99.90
9987;DHT22;5033;46.310;11.214;2022-12-07T08:45:06;8.20;99.90
9987;DHT22;5033;46.310;11.214;2022-12-07T08:47:34;8.60;99.90
9987;DHT22;5033;46.310;11.214;2022-12-07T08:50:04;9.20;99.90
9987;DHT22;5033;46.310;11.214;2022-12-07T08:52:33;9.90;99.90
9987;DHT22;5033;46.310;11.214;2022-12-07T08:55:02;10.40;99.90
9987;DHT22;5033;46.310;11.214;2022-12-07T08:57:30;10.60;99.90
9987;DHT22;5033;46.310;11.214;2022-12-07T08:59:59;10.70;99.90
9987;DHT22;5033;46.310;11.214;2022-12-07T09:02:26;10.90;99.90
9987;DHT22;5033;46.310;11.214;2022-12-07T09:04:53;11.50;99.90
9987;DHT22;5033;46.310;11.214;2022-12-07T09:07:21;12.20;99.90
9987;DHT22;5033;46.310;11.214;2022-12-07T09:09:48;13.40;99.90
9987;DHT22;5033;46.310;11.214;2022-12-07T09:12:15;14.90;99.90
9987;DHT22;5033;46.310;11.214;2022-12-07T09:14:42;16.00;99.90
9987;DHT22;5033;46.310;11.214;2022-12-07T09:17:11;17.00;99.90
9987;DHT22;5033;46.310;11.214;2022-12-07T09:19:38;17.80;99.90
9987;DHT22;5033;46.310;11.214;2022-12-07T09:22:07;18.60;99.90
9987;DHT22;5033;46.310;11.214;2022-12-07T09:24:35;19.10;99.90
9987;DHT22;5033;46.310;11.214;2022-12-07T09:27:02;19.50;99.90
9987;DHT22;5033;46.310;11.214;2022-12-07T09:29:29;19.80;97.70
9987;DHT22;5033;46.310;11.214;2022-12-07T09:31:57;19.90;96.40
9987;DHT22;5033;46.310;11.214;2022-12-07T09:34:24;19.90;94.80
9987;DHT22;5033;46.310;11.214;2022-12-07T09:36:52;20.20;92.50
9987;DHT22;5033;46.310;11.214;2022-12-07T09:39:19;20.00;92.50
9987;DHT22;5033;46.310;11.214;2022-12-07T09:41:47;19.80;91.60
9987;DHT22;5033;46.310;11.214;2022-12-07T09:44:23;19.60;91.40
9987;DHT22;5033;46.310;11.214;2022-12-07T09:46:51;19.50;91.70
9987;DHT22;5033;46.310;11.214;2022-12-07T09:49:21;19.20;92.00
9987;DHT22;5033;46.310;11.214;2022-12-07T09:52:00;18.50;92.60
9987;DHT22;5033;46.310;11.214;2022-12-07T09:54:29;16.90;95.00
9987;DHT22;5033;46.310;11.214;2022-12-07T09:56:58;15.50;96.70
9987;DHT22;5033;46.310;11.214;2022-12-07T09:59:26;14.30;99.90
9987;DHT22;5033;46.310;11.214;2022-12-07T10:01:53;13.40;99.90
9987;DHT22;5033;46.310;11.214;2022-12-07T10:04:22;12.50;99.90
9987;DHT22;5033;46.310;11.214;2022-12-07T10:06:51;12.00;99.90
9987;DHT22;5033;46.310;11.214;2022-12-07T10:09:20;11.50;99.90
9987;DHT22;5033;46.310;11.214;2022-12-07T10:12:07;11.30;99.90
9987;DHT22;5033;46.310;11.214;2022-12-07T10:14:37;11.10;99.90
9987;DHT22;5033;46.310;11.214;2022-12-07T10:17:29;10.70;99.90
9987;DHT22;5033;46.310;11.214;2022-12-07T10:20:16;10.70;99.90
9987;DHT22;5033;46.310;11.214;2022-12-07T10:23:01;10.80;99.90
9987;DHT22;5033;46.310;11.214;2022-12-07T10:25:30;10.90;99.90
9987;DHT22;5033;46.310;11.214;2022-12-07T10:28:12;10.90;99.90
9987;DHT22;5033;46.310;11.214;2022-12-07T10:30:52;10.70;99.90
9987;DHT22;5033;46.310;11.214;2022-12-07T10:33:34;10.90;99.90
9987;DHT22;5033;46.310;11.214;2022-12-07T10:36:17;11.10;99.90
9987;DHT22;5033;46.310;11.214;2022-12-07T10:38:46;11.10;99.90
9987;DHT22;5033;46.310;11.214;2022-12-07T10:41:14;11.10;99.90
9987;DHT22;5033;46.310;11.214;2022-12-07T10:43:54;11.00;99.90
9987;DHT22;5033;46.310;11.214;2022-12-07T10:46:30;11.00;99.90
9987;DHT22;5033;46.310;11.214;2022-12-07T10:49:13;11.20;99.90
9987;DHT22;5033;46.310;11.214;2022-12-07T10:51:47;11.20;99.90
9987;DHT22;5033;46.310;11.214;2022-12-07T10:54:25;11.10;99.90
9987;DHT22;5033;46.310;11.214;2022-12-07T10:57:14;11.30;99.90
9987;DHT22;5033;46.310;11.214;2022-12-07T11:00:04;11.20;99.90
9987;DHT22;5033;46.310;11.214;2022-12-07T11:03:02;11.30;99.90
9987;DHT22;5033;46.310;11.214;2022-12-07T11:05:39;11.30;99.90
9987;DHT22;5033;46.310;11.214;2022-12-07T11:08:18;11.50;99.90
9987;DHT22;5033;46.310;11.214;2022-12-07T11:10:53;11.50;99.90
9987;DHT22;5033;46.310;11.214;2022-12-07T11:13:29;11.30;99.90
9987;DHT22;5033;46.310;11.214;2022-12-07T11:16:16;11.40;99.90
9987;DHT22;5033;46.310;11.214;2022-12-07T11:18:55;11.40;99.90
9987;DHT22;5033;46.310;11.214;2022-12-07T11:21:31;11.30;99.90
9987;DHT22;5033;46.310;11.214;2022-12-07T11:24:08;11.30;99.90
9987;DHT22;5033;46.310;11.214;2022-12-07T11:26:50;11.40;99.90
9987;DHT22;5033;46.310;11.214;2022-12-07T11:29:33;11.60;99.90
9987;DHT22;5033;46.310;11.214;2022-12-07T11:32:15;11.80;99.90
9987;DHT22;5033;46.310;11.214;2022-12-07T11:34:51;11.80;99.90
9987;DHT22;5033;46.310;11.214;2022-12-07T11:37:28;11.70;99.90
9987;DHT22;5033;46.310;11.214;2022-12-07T11:40:00;11.60;99.90
9987;DHT22;5033;46.310;11.214;2022-12-07T11:42:33;11.40;99.90
9987;DHT22;5033;46.310;11.214;2022-12-07T11:45:14;11.20;99.90
9987;DHT22;5033;46.310;11.214;2022-12-07T11:47:46;10.90;99.90
9987;DHT22;5033;46.310;11.214;2022-12-07T11:50:25;10.80;99.90
9987;DHT22;5033;46.310;11.214;2022-12-07T11:52:57;10.80;99.90
9987;DHT22;5033;46.310;11.214;2022-12-07T11:55:31;10.80;99.90
9987;DHT22;5033;46.310;11.214;2022-12-07T11:58:04;11.00;99.90
9987;DHT22;5033;46.310;11.214;2022-12-07T12:00:32;11.20;99.90
9987;DHT22;5033;46.310;11.214;2022-12-07T12:03:11;11.20;99.90
9987;DHT22;5033;46.310;11.214;2022-12-07T12:05:41;11.10;99.90
9987;DHT22;5033;46.310;11.214;2022-12-07T12:08:15;10.90;99.90
9987;DHT22;5033;46.310;11.214;2022-12-07T12:10:54;10.80;99.90
9987;DHT22;5033;46.310;11.214;2022-12-07T12:13:34;10.80;99.90
9987;DHT22;5033;46.310;11.214;2022-12-07T12:19:27;10.90;99.90
9987;DHT22;5033;46.310;11.214;2022-12-07T12:22:12;10.90;99.90
9987;DHT22;5033;46.310;11.214;2022-12-07T12:24:43;11.00;99.90
9987;DHT22;5033;46.310;11.214;2022-12-07T12:27:21;10.90;99.90
9987;DHT22;5033;46.310;11.214;2022-12-07T12:29:53;11.10;99.90
9987;DHT22;5033;46.310;11.214;2022-12-07T12:32:23;11.10;99.90
9987;DHT22;5033;46.310;11.214;2022-12-07T12:35:19;10.90;99.90
9987;DHT22;5033;46.310;11.214;2022-12-07T12:37:47;10.90;99.90
9987;DHT22;5033;46.310;11.214;2022-12-07T12:40:43;10.90;99.90
9987;DHT22;5033;46.310;11.214;2022-12-07T12:43:44;10.80;99.90
9987;DHT22;5033;46.310;11.214;2022-12-07T12:46:52;10.90;99.90
9987;DHT22;5033;46.310;11.214;2022-12-07T12:49:40;10.80;99.90
9987;DHT22;5033;46.310;11.214;2022-12-07T12:55:26;10.70;99.90
9987;DHT22;5033;46.310;11.214;2022-12-07T12:58:22;10.70;99.90
9987;DHT22;5033;46.310;11.214;2022-12-07T13:04:27;10.80;99.90
9987;DHT22;5033;46.310;11.214;2022-12-07T13:06:56;10.90;99.90
9987;DHT22;5033;46.310;11.214;2022-12-07T13:09:28;10.80;99.90
9987;DHT22;5033;46.310;11.214;2022-12-07T13:12:02;10.80;99.90
9987;DHT22;5033;46.310;11.214;2022-12-07T13:14:43;10.70;99.90
9987;DHT22;5033;46.310;11.214;2022-12-07T13:23:19;10.60;99.90
9987;DHT22;5033;46.310;11.214;2022-12-07T13:26:15;10.60;99.90
9987;DHT22;5033;46.310;11.214;2022-12-07T13:28:46;10.50;99.90
9987;DHT22;5033;46.310;11.214;2022-12-07T13:33:58;10.40;99.90
9987;DHT22;5033;46.310;11.214;2022-12-07T13:36:29;10.40;99.90
9987;DHT22;5033;46.310;11.214;2022-12-07T13:38:59;10.40;99.90
9987;DHT22;5033;46.310;11.214;2022-12-07T13:41:27;10.30;99.90
9987;DHT22;5033;46.310;11.214;2022-12-07T13:44:00;10.20;99.90
9987;DHT22;5033;46.310;11.214;2022-12-07T13:46:36;9.80;99.90
9987;DHT22;5033;46.310;11.214;2022-12-07T13:49:19;9.50;99.90
9987;DHT22;5033;46.310;11.214;2022-12-07T13:51:47;9.40;99.90
9987;DHT22;5033;46.310;11.214;2022-12-07T13:54:14;9.30;99.90
9987;DHT22;5033;46.310;11.214;2022-12-07T13:56:42;9.10;99.90
9987;DHT22;5033;46.310;11.214;2022-12-07T13:59:14;8.90;99.90
9987;DHT22;5033;46.310;11.214;2022-12-07T14:01:43;8.60;99.90
9987;DHT22;5033;46.310;11.214;2022-12-07T14:04:33;8.50;99.90
9987;DHT22;5033;46.310;11.214;2022-12-07T14:07:15;8.30;99.90
9987;DHT22;5033;46.310;11.214;2022-12-07T14:09:54;8.20;99.90
9987;DHT22;5033;46.310;11.214;2022-12-07T14:12:22;7.90;99.90
9987;DHT22;5033;46.310;11.214;2022-12-07T14:14:51;7.80;99.90
9987;DHT22;5033;46.310;11.214;2022-12-07T14:17:20;7.60;99.90
9987;DHT22;5033;46.310;11.214;2022-12-07T14:19:50;7.50;99.90
9987;DHT22;5033;46.310;11.214;2022-12-07T14:22:30;7.40;99.90
9987;DHT22;5033;46.310;11.214;2022-12-07T14:25:19;7.30;99.90
9987;DHT22;5033;46.310;11.214;2022-12-07T14:27:52;7.20;99.90
9987;DHT22;5033;46.310;11.214;2022-12-07T14:30:24;7.10;99.90
9987;DHT22;5033;46.310;11.214;2022-12-07T14:32:54;7.00;99.90
9987;DHT22;5033;46.310;11.214;2022-12-07T14:35:21;6.90;99.90
9987;DHT22;5033;46.310;11.214;2022-12-07T14:37:49;6.90;99.90
9987;DHT22;5033;46.310;11.214;2022-12-07T14:40:19;6.80;99.90
9987;DHT22;5033;46.310;11.214;2022-12-07T14:42:47;6.80;99.90
9987;DHT22;5033;46.310;11.214;2022-12-07T14:45:17;6.70;99.90
9987;DHT22;5033;46.310;11.214;2022-12-07T14:47:46;6.60;99.90
9987;DHT22;5033;46.310;11.214;2022-12-07T14:50:16;6.50;99.90
9987;DHT22;5033;46.310;11.214;2022-12-07T14:52:46;6.50;99.90
9987;DHT22;5033;46.310;11.214;2022-12-07T14:55:18;6.40;99.90
9987;DHT22;5033;46.310;11.214;2022-12-07T14:57:47;6.40;99.90
9987;DHT22;5033;46.310;11.214;2022-12-07T15:00:15;6.40;99.90
9987;DHT22;5033;46.310;11.214;2022-12-07T15:02:43;6.40;99.90
9987;DHT22;5033;46.310;11.214;2022-12-07T15:05:11;6.30;99.90
9987;DHT22;5033;46.310;11.214;2022-12-07T15:07:39;6.30;99.90
9987;DHT22;5033;46.310;11.214;2022-12-07T15:10:14;6.20;99.90
9987;DHT22;5033;46.310;11.214;2022-12-07T15:12:43;6.10;99.90
9987;DHT22;5033;46.310;11.214;2022-12-07T15:15:10;6.00;99.90
9987;DHT22;5033;46.310;11.214;2022-12-07T15:17:37;6.00;99.90
9987;DHT22;5033;46.310;11.214;2022-12-07T15:20:08;5.90;99.90
9987;DHT22;5033;46.310;11.214;2022-12-07T15:22:39;5.90;99.90
9987;DHT22;5033;46.310;11.214;2022-12-07T15:25:08;5.80;99.90
9987;DHT22;5033;46.310;11.214;2022-12-07T15:27:35;5.80;99.90
9987;DHT22;5033;46.310;11.214;2022-12-07T15:30:02;5.70;99.90
9987;DHT22;5033;46.310;11.214;2022-12-07T15:32:29;5.70;99.90
9987;DHT22;5033;46.310;11.214;2022-12-07T15:34:57;5.60;99.90
9987;DHT22;5033;46.310;11.214;2022-12-07T15:37:24;5.60;99.90
9987;DHT22;5033;46.310;11.214;2022-12-07T15:39:52;5.50;99.90
9987;DHT22;5033;46.310;11.214;2022-12-07T15:42:19;5.50;99.90
9987;DHT22;5033;46.310;11.214;2022-12-07T15:44:46;5.50;99.90
9987;DHT22;5033;46.310;11.214;2022-12-07T15:47:30;5.50;99.90
9987;DHT22;5033;46.310;11.214;2022-12-07T15:49:58;5.40;99.90
9987;DHT22;5033;46.310;11.214;2022-12-07T15:52:25;5.30;99.90
9987;DHT22;5033;46.310;11.214;2022-12-07T15:54:56;5.30;99.90
9987;DHT22;5033;46.310;11.214;2022-12-07T15:57:25;5.20;99.90
9987;DHT22;5033;46.310;11.214;2022-12-07T15:59:53;5.20;99.90
9987;DHT22;5033;46.310;11.214;2022-12-07T16:02:20;5.10;99.90
9987;DHT22;5033;46.310;11.214;2022-12-07T16:04:48;5.10;99.90
9987;DHT22;5033;46.310;11.214;2022-12-07T16:07:16;5.00;99.90
9987;DHT22;5033;46.310;11.214;2022-12-07T16:09:43;5.00;99.90
9987;DHT22;5033;46.310;11.214;2022-12-07T16:12:13;5.00;99.90
9987;DHT22;5033;46.310;11.214;2022-12-07T16:14:40;5.00;99.90
9987;DHT22;5033;46.310;11.214;2022-12-07T16:17:08;4.90;99.90
9987;DHT22;5033;46.310;11.214;2022-12-07T16:19:36;4.90;99.90
9987;DHT22;5033;46.310;11.214;2022-12-07T16:22:04;4.80;99.90
9987;DHT22;5033;46.310;11.214;2022-12-07T16:24:31;4.80;99.90
9987;DHT22;5033;46.310;11.214;2022-12-07T16:26:59;4.80;99.90
9987;DHT22;5033;46.310;11.214;2022-12-07T16:29:28;4.80;99.90
9987;DHT22;5033;46.310;11.214;2022-12-07T16:31:55;4.80;99.90
9987;DHT22;5033;46.310;11.214;2022-12-07T16:34:22;4.80;99.90
9987;DHT22;5033;46.310;11.214;2022-12-07T16:36:49;4.70;99.90
9987;DHT22;5033;46.310;11.214;2022-12-07T16:39:16;4.70;99.90
9987;DHT22;5033;46.310;11.214;2022-12-07T16:41:44;4.70;99.90
9987;DHT22;5033;46.310;11.214;2022-12-07T16:44:13;4.60;99.90
9987;DHT22;5033;46.310;11.214;2022-12-07T16:46:42;4.60;99.90